• Join FlightAware (Why Join?)
  • Login
  • US Flag 
11:03AM EST


 

Airport Tracker/Info


-or-


 

Live Flight TrackerFlight Track Log ✈ N717AN ✈ 25-Apr-2013 ✈ KJFK - EGLL / LHR

Flight Track Log - Related Links

Times and Time Zones

All times are in EDT time to prevent confusion due to time zone crossing. See the N717AN flight status page for this flight to view local times or setup timezone preferences in your user account.

Time Position Orientation Groundspeed Altitude Reporting Facility
EDT Latitude Longitude Course Direction KTS MPH feet Rate Location/Type
06:54PM 40.6310 -73.7780 217° Southwest 172 198  Level FlightAware
06:55PM 40.6110 -73.7940 211° Southwest 179 206 1,400 2,040 Climbing FlightAware
06:55PM 40.5890 -73.8040 199° South 224 258 1,900 1,740 Climbing FlightAware
06:55PM 40.5580 -73.7810 151° Southeast 261 300 3,000 2,400 Climbing FlightAware
06:56PM 40.5520 -73.7610 112° Southeast 269 310 3,700 2,640 Climbing FlightAware
06:56PM 40.5500 -73.7440 99° East 271 312 4,100 3,120 Climbing FlightAware
06:56PM 40.5510 -73.6950 88° East 276 318 5,800 3,000 Climbing FlightAware
06:57PM 40.5530 -73.6420 87° East 290 334 7,100 2,760 Climbing FlightAware
06:57PM 40.5540 -73.5880 89° East 299 344 8,600 3,120 Climbing FlightAware
06:58PM 40.5540 -73.5707 90° East 301 346 9,100 2,880 Climbing FlightAware ADS-B
06:58PM 40.5541 -73.5322 90° East 309 356 10,000 2,340 Climbing FlightAware ADS-B
06:58PM 40.5560 -73.4741 88° East 324 373 11,100 2,220 Climbing FlightAware ADS-B
06:59PM 40.5563 -73.4089 90° East 353 406 12,300 2,520 Climbing FlightAware ADS-B
06:59PM 40.5561 -73.3411 90° East 372 428 13,700 2,460 Climbing FlightAware ADS-B
07:00PM 40.5570 -73.2760 89° East 392 451 14,800 2,460 Climbing FlightAware
07:00PM 40.5573 -73.2466 89° East 394 453 15,400 2,700 Climbing FlightAware ADS-B
07:01PM 40.5581 -73.1645 89° East 411 473 16,800 2,700 Climbing FlightAware ADS-B
07:01PM 40.5588 -73.0839 89° East 419 482 18,300 2,580 Climbing FlightAware ADS-B
07:02PM 40.5615 -73.0227 87° East 435 501 19,200 2,460 Climbing FlightAware ADS-B
07:02PM 40.5695 -72.9727 78° East 446 513 20,100 2,820 Climbing FlightAware ADS-B
07:02PM 40.5901 -72.8889 72° East 446 513 21,600 2,700 Climbing FlightAware ADS-B
07:03PM 40.6031 -72.8395 71° East 454 522 22,400 2,220 Climbing FlightAware ADS-B
07:03PM 40.6245 -72.7576 71° East 461 531 23,500 2,040 Climbing FlightAware ADS-B
07:04PM 40.6463 -72.6729 71° East 465 535 24,600 900 Climbing FlightAware ADS-B
07:05PM 40.6890 -72.5060 71° East 475 547 25,000 180 Climbing FlightAware
07:05PM 40.7150 -72.4000 72° East 477 549 25,000 480 Level FlightAware
07:06PM 40.7440 -72.2850 72° East 484 557 25,700 1,620 Climbing FlightAware
07:07PM 40.7750 -72.1620 72° East 491 565 27,300 1,680 Climbing FlightAware
07:07PM 40.7983 -72.0653 72° East 505 581 27,800 1,380 Climbing FlightAware ADS-B
07:08PM 40.8380 -71.9050 72° East 523 602 29,300 1,680 Climbing FlightAware
07:09PM 40.8690 -71.7810 72° East 529 609 30,500 1,800 Climbing FlightAware
07:10PM 40.9010 -71.6460 73° East 530 610 31,900 1,620 Climbing FlightAware
07:10PM 40.9280 -71.5350 72° East 536 617 32,700 960 Climbing FlightAware
07:11PM 40.9600 -71.4050 72° East 539 620 33,200 1,020 Climbing FlightAware
07:12PM 40.9940 -71.2630 72° East 551 634 34,300 1,320 Climbing FlightAware
07:12PM 41.0210 -71.1510 72° East 552 635 35,000 480 Climbing FlightAware
07:13PM 41.0590 -70.9890 73° East 554 638 35,000  Level FlightAware
07:14PM 41.0890 -70.8820 70° East 556 640 35,000  Level FlightAware
07:14PM 41.1490 -70.7620 56° Northeast 566 651 35,000  Level FlightAware
07:15PM 41.2370 -70.6610 41° Northeast 560 644 35,000  Level FlightAware
07:16PM 41.3410 -70.5600 36° Northeast 561 646 35,000  Level FlightAware
07:17PM 41.4290 -70.4740 36° Northeast 558 642 35,000  Level FlightAware
07:17PM 41.5060 -70.3970 37° Northeast 556 640 35,000  Level FlightAware
07:18PM 41.5920 -70.3050 39° Northeast 562 647 35,000  Level FlightAware
07:19PM 41.6830 -70.2040 40° Northeast 563 648 35,000  Level FlightAware
07:20PM 41.7680 -70.1100 40° Northeast 562 647 35,000  Level FlightAware
07:20PM 41.8460 -70.0240 39° Northeast 561 646 35,000  Level FlightAware
07:21PM 41.9280 -69.9330 40° Northeast 561 646 35,000  Level FlightAware
07:22PM 42.0210 -69.8290 40° Northeast 561 646 35,000  Level FlightAware
07:22PM 42.1030 -69.7370 40° Northeast 561 646 35,000  Level FlightAware
07:23PM 42.1840 -69.6460 40° Northeast 555 639 35,000  Level FlightAware
07:24PM 42.2720 -69.5460 40° Northeast 556 640 35,000  Level FlightAware
07:24PM 42.3520 -69.4560 40° Northeast 556 640 35,000  Level FlightAware
07:25PM 42.4320 -69.3650 40° Northeast 553 636 35,000  Level FlightAware
07:26PM 42.5180 -69.2670 40° Northeast 554 638 35,000  Level FlightAware
07:27PM 42.6100 -69.1610 40° Northeast 553 636 35,000  Level FlightAware
07:27PM 42.6870 -69.0730 40° Northeast 553 636 35,000  Level FlightAware
07:28PM 42.7940 -68.9490 40° Northeast 552 635 35,000  Level FlightAware
07:29PM 42.8790 -68.8510 40° Northeast 553 636 35,000  Level FlightAware
07:30PM 42.9640 -68.7520 40° Northeast 554 638 35,000  Level FlightAware
07:30PM 43.0390 -68.6640 41° Northeast 554 638 35,000  Level FlightAware
07:31PM 43.1440 -68.5400 41° Northeast 554 638 35,000  Level FlightAware
07:32PM 43.2220 -68.4480 41° Northeast 554 638 35,000  Level FlightAware
07:33PM 43.3100 -68.3440 41° Northeast 554 638 35,000  Level FlightAware
07:33PM 43.3760 -68.2660 41° Northeast 554 638 35,000  Level FlightAware
07:34PM 43.4880 -68.1330 41° Northeast 35,000  Level FlightAware
07:35PM 43.5950 -68.0050 41° Northeast 557 641 35,000  Level FlightAware
07:36PM 43.6810 -67.9010 41° Northeast 557 641 35,000  Level FlightAware
07:37PM 43.7880 -67.7720 41° Northeast 557 641 35,000  Level FlightAware
07:37PM 43.8670 -67.6770 41° Northeast 557 641 35,000  Level FlightAware
07:38PM 43.9520 -67.5720 42° Northeast 558 642 35,000  Level FlightAware
07:38PM 44.0110 -67.5000 41° Northeast 558 642 35,000  Level FlightAware
07:39PM 44.1070 -67.3830 41° Northeast 557 641 35,000  Level FlightAware
07:40PM 44.1930 -67.2770 41° Northeast 558 642 35,000  Level FlightAware
07:41PM 44.2720 -67.1790 42° Northeast 558 642 35,000  Level FlightAware
07:42PM 44.4480 -66.9610 41° Northeast 554 638 35,000  Level FlightAware
07:45PM 44.7230 -66.6040 43° Northeast 553 636 35,000  Level FlightAware
07:46PM 44.8560 -66.4310 43° Northeast 553 636 35,000  Level FlightAware
07:47PM 44.9880 -66.2590 43° Northeast 554 638 35,000  Level FlightAware
07:48PM 45.1300 -66.0710 43° Northeast 553 636 35,000  Level FlightAware
07:50PM 45.2690 -65.8870 43° Northeast 556 640 35,000  Level FlightAware
07:51PM 45.4000 -65.7110 43° Northeast 558 642 35,000  Level FlightAware
07:52PM 45.5330 -65.5320 43° Northeast 559 643 35,000  Level FlightAware
07:53PM 45.6240 -65.4090 43° Northeast 563 648 35,000  Level FlightAware
07:53PM 45.7080 -65.2940 44° Northeast 564 649 35,000  Level FlightAware
07:54PM 45.7840 -65.1910 43° Northeast 565 650 35,000  Level FlightAware
07:55PM 45.8550 -65.0940 44° Northeast 565 650 35,000  Level FlightAware
07:56PM 45.9590 -64.9520 43° Northeast 563 648 35,000  Level FlightAware
07:56PM 46.0240 -64.8650 43° Northeast 563 648 35,000  Level FlightAware
07:57PM 46.1000 -64.7540 45° Northeast 562 647 35,000  Level FlightAware
07:58PM 46.1940 -64.6230 44° Northeast 562 647 35,000  Level FlightAware
07:58PM 46.2580 -64.5350 44° Northeast 562 647 35,000  Level FlightAware
07:59PM 46.3210 -64.4460 44° Northeast 562 647 35,000  Level FlightAware
08:00PM 46.3850 -64.3570 44° Northeast 562 647 35,000  Level FlightAware
08:00PM 46.4490 -64.2680 44° Northeast 562 647 35,000  Level FlightAware
08:01PM 46.5280 -64.1560 44° Northeast 562 647 35,000  Level FlightAware
08:02PM 46.5920 -64.0670 44° Northeast 562 647 35,000  Level FlightAware
08:03PM 46.6550 -63.9770 44° Northeast 562 647 35,000  Level FlightAware
08:03PM 46.7190 -63.8880 44° Northeast 562 647 35,000  Level FlightAware
08:04PM 46.7820 -63.7980 44° Northeast 562 647 35,000  Level FlightAware
08:05PM 46.8460 -63.7080 44° Northeast 562 647 35,000  Level FlightAware
08:05PM 46.9250 -63.5960 44° Northeast 562 647 35,000  Level FlightAware
08:06PM 46.9890 -63.5060 44° Northeast 562 647 35,000  Level FlightAware
08:07PM 47.0530 -63.4160 44° Northeast 562 647 35,000  Level FlightAware
08:07PM 47.2333 -63.0833 44° Northeast 550 633 35,000  Level Moncton Center
08:08PM 47.3333 -62.9333 45° Northeast 550 633 35,000  Level Moncton Center
08:09PM 47.4500 -62.7667 44° Northeast 550 633 35,000  Level Moncton Center
08:10PM 47.5500 -62.6167 45° Northeast 550 633 35,000  Level Moncton Center
08:11PM 47.6667 -62.4333 47° Northeast 550 633 35,000  Level Moncton Center
08:12PM 47.7667 -62.2833 45° Northeast 550 633 35,000  Level Moncton Center
08:13PM 47.8833 -62.1333 41° Northeast 550 633 35,000  Level Moncton Center
08:14PM 47.9167 -62.0833 45° Northeast 550 633 35,000  Level Gander Center
08:15PM 48.0167 -61.9000 51° Northeast 560 644 35,000  Level Gander Center
08:16PM 48.1167 -61.7500 45° Northeast 560 644 35,000  Level Gander Center
08:16PM 48.2000 -61.6167 47° Northeast 550 633 35,000  Level Moncton Center
08:17PM 48.3000 -61.4500 48° Northeast 550 633 35,000  Level Moncton Center
08:18PM 48.4000 -61.3000 45° Northeast 540 621 35,000  Level Moncton Center
08:19PM 48.5000 -61.1167 50° Northeast 550 633 35,000  Level Moncton Center
08:20PM 48.6167 -60.9500 43° Northeast 550 633 35,000  Level Moncton Center
08:21PM 48.7167 -60.7667 50° Northeast 550 633 35,000  Level Moncton Center
08:22PM 48.8333 -60.6000 43° Northeast 540 621 35,000  Level Moncton Center
08:23PM 48.8500 -60.5667 53° Northeast 540 621 35,000  Level Gander Center
08:23PM 48.9167 -60.4500 49° Northeast 540 621 35,000  Level Moncton Center
08:24PM 49.0333 -60.2833 43° Northeast 540 621 35,000  Level Moncton Center
08:25PM 49.0667 -60.2333 44° Northeast 540 621 35,000  Level Gander Center
08:25PM 49.1333 -60.1000 53° Northeast 540 621 35,000  Level Moncton Center
08:26PM 49.2333 -59.9333 47° Northeast 540 621 35,000  Level Moncton Center
08:27PM 49.3333 -59.7667 47° Northeast 550 633 35,000  Level Moncton Center
08:28PM 49.3500 -59.7167 63° Northeast 550 633 35,000  Level Gander Center
08:28PM 49.4500 -59.5833 41° Northeast 550 633 35,000  Level Moncton Center
08:29PM 49.5333 -59.4167 52° Northeast 550 633 35,000  Level Moncton Center
08:30PM 49.6500 -59.2167 48° Northeast 550 633 35,000  Level Moncton Center
08:31PM 49.6667 -59.1833 52° Northeast 550 633 35,000  Level Gander Center
08:31PM 49.7333 -59.0500 52° Northeast 550 633 35,000  Level Moncton Center
08:32PM 49.8333 -58.9000 44° Northeast 550 633 35,000  Level Moncton Center
08:33PM 49.8667 -58.8167 58° Northeast 550 633 35,000  Level Gander Center
08:33PM 49.9333 -58.6667 55° Northeast 540 621 35,000  Level Moncton Center
08:34PM 50.0167 -58.5000 52° Northeast 540 621 35,000  Level Moncton Center
08:35PM 50.0333 -58.4500 63° Northeast 540 621 35,000  Level Gander Center
08:36PM 50.1333 -58.2500 52° Northeast 530 610 35,000  Level Gander Center
08:37PM 50.2167 -58.0667 55° Northeast 530 610 35,000  Level Gander Center
08:38PM 50.3000 -57.8833 55° Northeast 530 610 35,000  Level Gander Center
08:39PM 50.3833 -57.6833 57° Northeast 530 610 35,000  Level Gander Center
08:40PM 50.4833 -57.5000 49° Northeast 520 598 35,000  Level Gander Center
08:40PM 50.5333 -57.3667 59° Northeast 530 610 35,000  Level Moncton Center
08:41PM 50.6167 -57.1833 54° Northeast 520 598 35,000  Level Moncton Center
08:42PM 50.6333 -57.1500 52° Northeast 520 598 35,000  Level Gander Center
08:43PM 50.7167 -56.9500 57° Northeast 520 598 35,000  Level Gander Center
08:44PM 50.8000 -56.7500 57° Northeast 520 598 35,000  Level Gander Center
08:45PM 50.9000 -56.5667 49° Northeast 520 598 35,000  Level Gander Center
08:45PM 50.9000 -56.5000 90° East 530 610 35,000  Level Gander Center
08:46PM 50.9667 -56.3667 52° Northeast 520 598 35,000  Level Gander Center
08:47PM 51.0500 -56.1667 56° Northeast 520 598 35,000  Level Gander Center
08:48PM 51.1333 -55.9833 54° Northeast 530 610 35,000  Level Gander Center
08:49PM 51.2167 -55.8000 54° Northeast 520 598 35,000  Level Gander Center
08:50PM 51.3000 -55.6000 56° Northeast 520 598 35,000  Level Gander Center
08:51PM 51.3833 -55.4167 54° Northeast 520 598 35,000  Level Gander Center
08:51PM 51.3833 -55.3500 90° East 520 598 35,000  Level Gander Center
08:52PM 51.4833 -55.1833 46° Northeast 520 598 35,000  Level Gander Center
08:53PM 51.5333 -55.0333 62° Northeast 520 598 35,000  Level Gander Center
08:53PM 51.5500 -54.9500 72° East 510 587 35,000 480 Level Gander Center
08:54PM 51.6167 -54.8333 47° Northeast 510 587 35,500 540 Climbing Gander Center
08:55PM 51.6833 -54.6333 62° Northeast 520 598 36,000 360 Climbing Gander Center
08:55PM 51.7167 -54.5833 43° Northeast 510 587 36,000  Level Gander Center
08:56PM 51.7833 -54.3833 62° Northeast 510 587 36,000  Level Gander Center
08:57PM 51.8500 -54.2667 47° Northeast 510 587 36,000  Level Gander Center
08:58PM 51.9167 -54.0667 62° Northeast 510 587 36,000  Level Gander Center
08:59PM 52.0000 -53.8667 56° Northeast 510 587 36,000  Level Gander Center
08:59PM 52.0333 -53.8333 32° Northeast 510 587 36,000  Level Gander Center
09:00PM 52.1000 -53.6167 63° Northeast 510 587 36,000  Level Gander Center
09:01PM 52.1500 -53.4500 64° Northeast 510 587 36,000  Level Gander Center
09:02PM 52.2167 -53.2667 59° Northeast 520 598 36,000  Level Gander Center
09:02PM 52.2333 -53.1833 72° East 520 598 36,000  Level Gander Center
09:03PM 52.2833 -53.0667 55° Northeast 510 587 36,000  Level Gander Center
09:04PM 52.3333 -52.8500 69° East 510 587 36,000  Level Gander Center
09:04PM 52.3333 -52.7833 90° East 510 587 36,000  Level Gander Center
09:05PM 52.3833 -52.5500 71° East 510 587 36,000  Level Gander Center
09:06PM 52.4500 -52.3500 61° Northeast 520 598 36,000  Level Gander Center
09:07PM 52.4833 -52.2000 70° East 510 587 36,000  Level Gander Center
09:08PM 52.5333 -51.9667 71° East 510 587 36,000  Level Gander Center
09:09PM 52.5833 -51.7500 69° East 510 587 36,000  Level Gander Center
09:10PM 52.6333 -51.5333 69° East 510 587 36,000  Level Gander Center
09:11PM 52.6833 -51.3333 68° East 510 587 36,000  Level Gander Center
09:13PM 52.7686 -50.9824 68° East  Level FlightAware Approximate
09:15PM 52.8833 -50.3667 67° East 210 242 36,000  Level Gander Center
09:16PM 52.9167 -50.2167 70° East 280 322 36,000  Level Gander Center
09:18PM 53.0167 -49.8333 66° East 300 345 36,000  Level Gander Center
09:20PM 53.1211 -49.5141 67° East  Level FlightAware Approximate
09:20PM 53.1164 -49.4399 67° East  Level FlightAware Approximate
09:27PM 53.4607 -48.0248 67° East  Level FlightAware Approximate
09:28PM 53.5085 -47.8208 68° East  Level FlightAware Approximate
09:29PM 53.5559 -47.6164 69° East  Level FlightAware Approximate
09:30PM 53.6030 -47.4115 69° East  Level FlightAware Approximate
09:31PM 53.6498 -47.2061 69° East  Level FlightAware Approximate
09:32PM 53.6962 -47.0003 69° East  Level FlightAware Approximate
09:33PM 53.7422 -46.7940 69° East  Level FlightAware Approximate
09:34PM 53.7879 -46.5872 69° East  Level FlightAware Approximate
09:35PM 53.8333 -46.3801 70° East  Level FlightAware Approximate
09:36PM 53.8783 -46.1724 70° East  Level FlightAware Approximate
09:37PM 53.9229 -45.9644 70° East  Level FlightAware Approximate
09:38PM 53.9671 -45.7558 70° East  Level FlightAware Approximate
09:39PM 54.0110 -45.5469 70° East  Level FlightAware Approximate
09:40PM 54.0546 -45.3375 70° East  Level FlightAware Approximate
09:41PM 54.0978 -45.1276 71° East  Level FlightAware Approximate
09:42PM 54.1380 -44.9160 72° East  Level FlightAware Approximate
09:43PM 54.1778 -44.7038 72° East  Level FlightAware Approximate
09:44PM 54.2172 -44.4911 72° East  Level FlightAware Approximate
09:45PM 54.2562 -44.2781 73° East  Level FlightAware Approximate
09:46PM 54.2949 -44.0647 73° East  Level FlightAware Approximate
09:47PM 54.3332 -43.8509 73° East  Level FlightAware Approximate
09:48PM 54.3735 -43.6380 72° East  Level FlightAware Approximate
09:49PM 54.4134 -43.4247 72° East  Level FlightAware Approximate
09:50PM 54.4530 -43.2110 72° East  Level FlightAware Approximate
09:51PM 54.4922 -42.9968 72° East  Level FlightAware Approximate
09:52PM 54.5311 -42.7823 73° East  Level FlightAware Approximate
09:53PM 54.5695 -42.5674 73° East  Level FlightAware Approximate
09:54PM 54.6081 -42.3522 73° East  Level FlightAware Approximate
09:55PM 54.6462 -42.1367 73° East  Level FlightAware Approximate
09:56PM 54.6839 -41.9208 73° East  Level FlightAware Approximate
09:57PM 54.7213 -41.7044 73° East  Level FlightAware Approximate
09:58PM 54.7583 -41.4877 73° East  Level FlightAware Approximate
09:59PM 54.7949 -41.2706 74° East  Level FlightAware Approximate
10:00PM 54.8311 -41.0531 74° East  Level FlightAware Approximate
10:01PM 54.8669 -40.8352 74° East  Level FlightAware Approximate
10:02PM 54.9023 -40.6169 74° East  Level FlightAware Approximate
10:03PM 54.9374 -40.3982 74° East  Level FlightAware Approximate
10:04PM 54.9720 -40.1792 75° East  Level FlightAware Approximate
10:05PM 55.0017 -39.9584 86° East  Level FlightAware Approximate
10:06PM 55.0107 -39.7315 86° East  Level FlightAware Approximate
10:07PM 55.0194 -39.5044 86° East  Level FlightAware Approximate
10:08PM 55.0275 -39.2773 86° East  Level FlightAware Approximate
10:09PM 55.0353 -39.0501 86° East  Level FlightAware Approximate
10:10PM 55.0427 -38.8227 87° East  Level FlightAware Approximate
10:11PM 55.0496 -38.5953 87° East  Level FlightAware Approximate
10:12PM 55.0561 -38.3679 87° East  Level FlightAware Approximate
10:13PM 55.0622 -38.1403 87° East  Level FlightAware Approximate
10:14PM 55.0678 -37.9127 87° East  Level FlightAware Approximate
10:15PM 55.0730 -37.6850 88° East  Level FlightAware Approximate
10:16PM 55.0778 -37.4573 88° East  Level FlightAware Approximate
10:17PM 55.0822 -37.2295 88° East  Level FlightAware Approximate
10:18PM 55.0862 -37.0017 88° East  Level FlightAware Approximate
10:19PM 55.0897 -36.7738 88° East  Level FlightAware Approximate
10:20PM 55.0928 -36.5459 89° East  Level FlightAware Approximate
10:21PM 55.0955 -36.3179 89° East  Level FlightAware Approximate
10:22PM 55.0977 -36.0900 89° East  Level FlightAware Approximate
10:23PM 55.0995 -35.8620 89° East  Level FlightAware Approximate
10:24PM 55.1009 -35.6339 89° East  Level FlightAware Approximate
10:25PM 55.1019 -35.4059 89° East  Level FlightAware Approximate
10:26PM 55.1024 -35.1779 90° East  Level FlightAware Approximate
10:27PM 55.1026 -34.9498 90° East  Level FlightAware Approximate
10:28PM 55.1022 -34.7218 90° East  Level FlightAware Approximate
10:29PM 55.1015 -34.4938 90° East  Level FlightAware Approximate
10:30PM 55.1004 -34.2657 90° East  Level FlightAware Approximate
10:31PM 55.0988 -34.0377 91° East  Level FlightAware Approximate
10:32PM 55.0968 -33.8097 91° East  Level FlightAware Approximate
10:33PM 55.0943 -33.5818 91° East  Level FlightAware Approximate
10:34PM 55.0915 -33.3539 91° East  Level FlightAware Approximate
10:35PM 55.0882 -33.1259 91° East  Level FlightAware Approximate
10:36PM 55.0845 -32.8981 92° East  Level FlightAware Approximate
10:37PM 55.0803 -32.6703 92° East  Level FlightAware Approximate
10:38PM 55.0758 -32.4425 92° East  Level FlightAware Approximate
10:39PM 55.0708 -32.2148 92° East  Level FlightAware Approximate
10:40PM 55.0654 -31.9872 92° East  Level FlightAware Approximate
10:41PM 55.0595 -31.7596 92° East  Level FlightAware Approximate
10:42PM 55.0533 -31.5320 93° East  Level FlightAware Approximate
10:43PM 55.0466 -31.3046 93° East  Level FlightAware Approximate
10:44PM 55.0395 -31.0772 93° East  Level FlightAware Approximate
10:45PM 55.0320 -30.8500 93° East  Level FlightAware Approximate
10:46PM 55.0237 -30.6137 93° East  Level FlightAware Approximate
10:47PM 55.0149 -30.3775 94° East  Level FlightAware Approximate
10:48PM 55.0057 -30.1414 94° East  Level FlightAware Approximate
10:49PM 54.9944 -29.9057 96° East  Level FlightAware Approximate
10:50PM 54.9801 -29.6706 96° East  Level FlightAware Approximate
10:51PM 54.9654 -29.4356 96° East  Level FlightAware Approximate
10:52PM 54.9502 -29.2007 96° East  Level FlightAware Approximate
10:53PM 54.9345 -28.9661 97° East  Level FlightAware Approximate
10:54PM 54.9184 -28.7316 97° East  Level FlightAware Approximate
10:55PM 54.9019 -28.4974 97° East  Level FlightAware Approximate
10:56PM 54.8849 -28.2633 97° East  Level FlightAware Approximate
10:57PM 54.8674 -28.0294 97° East  Level FlightAware Approximate
10:58PM 54.8495 -27.7957 97° East  Level FlightAware Approximate
10:59PM 54.8312 -27.5623 98° East  Level FlightAware Approximate
11:00PM 54.8124 -27.3290 98° East  Level FlightAware Approximate
11:01PM 54.7931 -27.0960 98° East  Level FlightAware Approximate
11:02PM 54.7734 -26.8632 98° East  Level FlightAware Approximate
11:03PM 54.7533 -26.6306 98° East  Level FlightAware Approximate
11:04PM 54.7327 -26.3983 99° East  Level FlightAware Approximate
11:05PM 54.7117 -26.1662 99° East  Level FlightAware Approximate
11:06PM 54.6903 -25.9343 99° East  Level FlightAware Approximate
11:07PM 54.6684 -25.7027 99° East  Level FlightAware Approximate
11:08PM 54.6460 -25.4713 99° East  Level FlightAware Approximate
11:09PM 54.6232 -25.2402 100° East  Level FlightAware Approximate
11:10PM 54.6000 -25.0094 100° East  Level FlightAware Approximate
11:11PM 54.5763 -24.7788 100° East  Level FlightAware Approximate
11:12PM 54.5522 -24.5485 100° East  Level FlightAware Approximate
11:13PM 54.5277 -24.3185 100° East  Level FlightAware Approximate
11:14PM 54.5038 -24.0884 100° East  Level FlightAware Approximate
11:15PM 54.4804 -23.8583 100° East  Level FlightAware Approximate
11:16PM 54.4565 -23.6285 100° East  Level FlightAware Approximate
11:17PM 54.4322 -23.3989 100° East  Level FlightAware Approximate
11:18PM 54.4075 -23.1696 100° East  Level FlightAware Approximate
11:19PM 54.3824 -22.9406 101° East  Level FlightAware Approximate
11:20PM 54.3562 -22.7120 101° East  Level FlightAware Approximate
11:21PM 54.3288 -22.4841 102° East  Level FlightAware Approximate
11:22PM 54.3010 -22.2564 102° East  Level FlightAware Approximate
11:23PM 54.2728 -22.0290 102° East  Level FlightAware Approximate
11:24PM 54.2441 -21.8020 102° East  Level FlightAware Approximate
11:25PM 54.2151 -21.5753 102° East  Level FlightAware Approximate
11:26PM 54.1856 -21.3488 102° East  Level FlightAware Approximate
11:27PM 54.1556 -21.1228 103° East  Level FlightAware Approximate
11:28PM 54.1253 -20.8970 103° East  Level FlightAware Approximate
11:29PM 54.0945 -20.6716 103° East  Level FlightAware Approximate
11:30PM 54.0634 -20.4471 103° East  Level FlightAware Approximate
11:31PM 54.0318 -20.2230 103° East  Level FlightAware Approximate
11:32PM 53.9999 -19.9991 97° East  Level FlightAware Approximate
11:33PM 53.9841 -19.7705 97° East  Level FlightAware Approximate
11:34PM 53.9678 -19.5421 97° East  Level FlightAware Approximate
11:35PM 53.9511 -19.3139 97° East  Level FlightAware Approximate
11:36PM 53.9339 -19.0858 97° East  Level FlightAware Approximate
11:37PM 53.9163 -18.8580 97° East  Level FlightAware Approximate
11:38PM 53.8983 -18.6303 98° East  Level FlightAware Approximate
11:39PM 53.8798 -18.4028 98° East  Level FlightAware Approximate
11:40PM 53.8610 -18.1756 98° East  Level FlightAware Approximate
11:41PM 53.8417 -17.9485 98° East  Level FlightAware Approximate
11:42PM 53.8219 -17.7217 98° East  Level FlightAware Approximate
11:43PM 53.8018 -17.4950 98° East  Level FlightAware Approximate
11:44PM 53.7812 -17.2686 99° East  Level FlightAware Approximate
11:45PM 53.7602 -17.0424 99° East  Level FlightAware Approximate
11:46PM 53.7387 -16.8165 99° East  Level FlightAware Approximate
11:47PM 53.7168 -16.5907 99° East  Level FlightAware Approximate
11:48PM 53.6945 -16.3652 99° East  Level FlightAware Approximate
11:49PM 53.6718 -16.1400 100° East  Level FlightAware Approximate
11:50PM 53.6487 -15.9150 100° East  Level FlightAware Approximate
11:51PM 53.6251 -15.6902 100° East  Level FlightAware Approximate
11:52PM 53.6012 -15.4663 100° East  Level FlightAware Approximate
11:53PM 53.5769 -15.2427 100° East  Level FlightAware Approximate
11:54PM 53.5522 -15.0193 100° East  Level FlightAware Approximate
11:55PM 53.5268 -14.7962 101° East  Level FlightAware Approximate
11:56PM 53.5011 -14.5734 101° East  Level FlightAware Approximate
11:57PM 53.4749 -14.3509 101° East  Level FlightAware Approximate
11:58PM 53.4483 -14.1286 101° East  Level FlightAware Approximate
11:59PM 53.4213 -13.9067 101° East  Level FlightAware Approximate
12:00AM 53.3940 -13.6850 102° East  Level FlightAware Approximate
12:01AM 53.3665 -13.4634 102° East  Level FlightAware Approximate
12:01AM 52.8480 -12.7250 102° East 521 600 36,000  Level FlightAware
12:01AM 52.8380 -12.6000 97° East 521 600 36,000  Level FlightAware
12:02AM 53.3388 -13.2421 102° East  Level FlightAware Approximate
12:04AM 52.8087 -12.1148 96° East  Level Estimated
12:05AM 52.7946 -11.8927 96° East  Level Estimated
12:06AM 52.7801 -11.6709 96° East  Level Estimated
12:07AM 52.7652 -11.4492 96° East  Level Estimated
12:07AM 52.7290 -11.2920 96° East 516 594 36,000  Level FlightAware
12:09AM 52.6880 -10.8420 98° East 519 597 36,000  Level FlightAware
12:11AM 52.6612 -10.4699 97° East  Level Estimated
12:12AM 52.6448 -10.2491 97° East  Level Estimated
12:12AM 52.6220 -10.1570 97° East 521 600 36,000  Level FlightAware
12:12AM 52.6060 -10.0010 100° East 522 601 36,000  Level FlightAware
12:13AM 52.5840 -9.7810 99° East 521 600 36,000  Level FlightAware
12:14AM 52.5690 -9.6380 100° East 523 602 36,000  Level FlightAware
12:15AM 52.5490 -9.4490 100° East 525 604 36,000  Level FlightAware
12:15AM 52.5320 -9.2900 100° East 526 605 36,000  Level FlightAware
12:16AM 52.5130 -9.1110 100° East 526 605 36,000 -1,260 Level FlightAware
12:17AM 52.4995 -8.9930 100° East 482 555 34,500  Descending FlightAware UK
12:17AM 52.4950 -8.9520 100° East 529 609 36,000 -360 Climbing FlightAware
12:17AM 52.4920 -8.9223 100° East 482 555 34,400 -5,700 Descending FlightAware UK
12:17AM 52.4868 -8.8748 100° East 484 557 34,400  Level FlightAware UK
12:17AM 52.4791 -8.8038 100° East 486 559 34,400 4,140 Level FlightAware UK
12:17AM 52.4780 -8.7970 100° East 531 611 36,000 240 Climbing FlightAware
12:18AM 52.4684 -8.7092 100° East 484 557 34,500 -2,460 Descending FlightAware UK
12:18AM 52.4603 -8.6378 101° East 482 555 34,500 3,420 Level FlightAware UK
12:18AM 52.4600 -8.6350 101° East 530 610 36,000  Climbing FlightAware
12:19AM 52.4497 -8.5430 101° East 486 559 34,500 -2,700 Descending FlightAware UK
12:19AM 52.4415 -8.4720 101° East 488 562 34,500 3,720 Level FlightAware UK
12:19AM 52.4400 -8.4620 101° East 532 612 36,000  Climbing FlightAware
12:19AM 52.4305 -8.3773 101° East 486 559 34,500 -2,520 Descending FlightAware UK
12:20AM 52.4226 -8.3048 100° East 492 566 34,500 4,080 Level FlightAware UK
12:20AM 52.4220 -8.3010 100° East 533 613 36,000  Climbing FlightAware
12:20AM 52.4118 -8.2093 100° East 484 557 34,500 -2,400 Descending FlightAware UK
12:20AM 52.4034 -8.1381 101° East 492 566 34,500 3,600 Level FlightAware UK
12:20AM 52.4020 -8.1340 101° East 531 611 36,000  Climbing FlightAware
12:21AM 52.3924 -8.0433 101° East 488 562 34,500 -2,580 Descending FlightAware UK
12:21AM 52.3840 -7.9718 101° East 484 557 34,500 3,180 Level FlightAware UK
12:21AM 52.3810 -7.9560 101° East 527 606 36,000 -240 Climbing FlightAware
12:21AM 52.3698 -7.8545 101° East 488 562 34,400 -2,580 Descending FlightAware UK
12:22AM 52.3613 -7.7847 101° East 482 555 34,400 4,800 Level FlightAware UK
12:22AM 52.3630 -7.8010 101° East 526 605 36,000 300 Climbing FlightAware
12:22AM 52.3527 -7.7147 101° East 482 555 34,500 -2,700 Descending FlightAware UK
12:22AM 52.3442 -7.6447 101° East 482 555 34,500 3,720 Level FlightAware UK
12:22AM 52.3430 -7.6420 101° East 525 604 36,000 -300 Climbing FlightAware
12:23AM 52.3329 -7.5512 101° East 484 557 34,400 -2,700 Descending FlightAware UK
12:23AM 52.3245 -7.4812 101° East 484 557 34,400 4,320 Level FlightAware UK
12:23AM 52.3240 -7.4860 101° East 526 605 36,000 -300 Climbing FlightAware
12:23AM 52.3129 -7.3876 101° East 486 559 34,300 -3,000 Descending FlightAware UK
12:24AM 52.3039 -7.3172 102° East 492 566 34,100 3,120 Descending FlightAware UK
12:24AM 52.3020 -7.3050 102° East 532 612 35,600 -780 Climbing FlightAware
12:24AM 52.2919 -7.2220 102° East 488 562 33,800 -3,600 Descending FlightAware UK
12:24AM 52.2830 -7.1516 102° East 488 562 33,500 2,520 Descending FlightAware UK
12:25AM 52.2790 -7.1260 102° East 531 611 35,000 -240 Climbing FlightAware
12:25AM 52.2682 -7.0325 102° East 488 562 33,400 -2,580 Descending FlightAware UK
12:25AM 52.2594 -6.9620 101° East 486 559 33,400 4,800 Level FlightAware UK
12:25AM 52.2590 -6.9680 101° East 526 605 35,000 300 Climbing FlightAware
12:26AM 52.2505 -6.8927 101° East 486 559 33,500 -2,700 Descending FlightAware UK
12:26AM 52.2412 -6.8222 102° East 486 559 33,500 3,720 Level FlightAware UK
12:26AM 52.2400 -6.8180 102° East 524 603 35,000  Climbing FlightAware
12:26AM 52.2290 -6.7297 102° East 480 552 33,500 -2,520 Descending FlightAware UK
12:27AM 52.2198 -6.6603 102° East 480 552 33,500 4,080 Level FlightAware UK
12:27AM 52.2200 -6.6680 102° East 526 605 35,000  Climbing FlightAware
12:27AM 52.2076 -6.5676 102° East 482 555 33,500 -2,400 Descending FlightAware UK
12:27AM 52.1984 -6.4980 102° East 482 555 33,500 3,600 Level FlightAware UK
12:27AM 52.1960 -6.4850 102° East 528 608 35,000  Climbing FlightAware
12:28AM 52.1858 -6.4052 102° East 482 555 33,500 -2,580 Descending FlightAware UK
12:28AM 52.1729 -6.3361 107° East 484 557 33,500 3,180 Level FlightAware UK
12:28AM 52.1680 -6.3100 107° East 527 606 35,000  Climbing FlightAware
12:28AM 52.1524 -6.2219 107° East 484 557 33,500 -2,400 Descending FlightAware UK
12:29AM 52.1402 -6.1533 106° East 486 559 33,500  Level FlightAware UK
12:29AM 52.1281 -6.0849 106° East 484 557 33,500  Level FlightAware UK
12:29AM 52.1161 -6.0165 106° East 486 559 33,500  Level FlightAware UK
12:30AM 52.1043 -5.9484 106° East 482 555 33,500  Level FlightAware UK
12:30AM 52.0928 -5.8801 105° East 482 555 33,500 4,980 Level FlightAware UK
12:30AM 52.0960 -5.9020 105° East 524 603 35,000  Climbing FlightAware
12:30AM 52.0810 -5.8118 105° East 482 555 33,500 -2,460 Descending FlightAware UK
12:31AM 52.0690 -5.7427 106° East 482 555 33,500 4,080 Level FlightAware UK
12:31AM 52.0700 -5.7510 106° East 526 605 35,000  Climbing FlightAware
12:31AM 52.0533 -5.6525 106° East 484 557 33,500 -2,340 Descending FlightAware UK
12:31AM 52.0412 -5.5834 106° East 482 555 33,500 3,600 Level FlightAware UK
12:31AM 52.0410 -5.5820 106° East 528 608 35,000  Climbing FlightAware
12:32AM 52.0251 -5.4922 106° East 484 557 33,500 -2,520 Descending FlightAware UK
12:32AM 52.0131 -5.4237 106° East 486 559 33,500 4,080 Level FlightAware UK
12:32AM 52.0140 -5.4290 106° East 528 608 35,000  Climbing FlightAware
12:32AM 51.9973 -5.3325 106° East 488 562 33,500 -2,400 Descending FlightAware UK
12:33AM 51.9852 -5.2644 106° East 484 557 33,500 3,600 Level FlightAware UK
12:33AM 51.9830 -5.2560 106° East 524 603 35,000  Climbing FlightAware
12:33AM 51.9687 -5.1740 106° East 484 557 33,500 -2,580 Descending FlightAware UK
12:33AM 51.9564 -5.1061 106° East 482 555 33,500 3,900 Level FlightAware UK
12:33AM 51.9550 -5.0980 106° East 527 606 35,000  Climbing FlightAware
12:34AM 51.9401 -5.0157 106° East 486 559 33,500 -2,460 Descending FlightAware UK
12:34AM 51.9277 -4.9480 107° East 486 559 33,500 4,260 Level FlightAware UK
12:34AM 51.9253 -4.9367 107° East 525 604 35,000  Climbing FlightAware ADS-B
12:34AM 51.9150 -4.8798 107° East 484 557 33,500 -2,760 Descending FlightAware UK
12:35AM 51.9026 -4.8126 107° East 482 555 33,500 3,900 Level FlightAware UK
12:35AM 51.8991 -4.7944 107° East 522 601 35,000  Climbing FlightAware ADS-B
12:35AM 51.8861 -4.7232 107° East 482 555 33,500 -2,460 Descending FlightAware UK
12:35AM 51.8737 -4.6564 107° East 484 557 33,500 3,180 Level FlightAware UK
12:35AM 51.8700 -4.6350 107° East 522 601 35,000 3,060 Climbing FlightAware
12:36AM 51.8541 -4.5514 107° East 522 601 35,000 -2,400 Level FlightAware ADS-B
12:36AM 51.8408 -4.4781 107° East 478 550 33,500 -2,460 Descending FlightAware UK
12:36AM 51.8281 -4.4106 107° East 478 550 33,500 3,600 Level FlightAware UK
12:37AM 51.8233 -4.3859 107° East 522 601 35,000  Climbing FlightAware ADS-B
12:37AM 51.8116 -4.3212 107° East 478 550 33,500 -2,580 Descending FlightAware UK
12:37AM 51.7989 -4.2542 107° East 478 550 33,500  Level FlightAware UK
12:37AM 51.7860 -4.1866 107° East 480 552 33,500 3,300 Level FlightAware UK
12:38AM 51.7820 -4.1660 107° East 524 603 35,000 -540 Climbing FlightAware
12:38AM 51.7690 -4.0979 107° East 480 552 33,300 -3,480 Descending FlightAware UK
12:38AM 51.7559 -4.0297 107° East 488 562 33,100 2,160 Descending FlightAware UK
12:38AM 51.7490 -3.9960 107° East 532 612 34,400 -1,440 Climbing FlightAware
12:39AM 51.7338 -3.9156 107° East 488 562 32,400 -4,200 Descending FlightAware UK
12:39AM 51.7208 -3.8480 107° East 484 557 31,900 1,500 Descending FlightAware UK
12:39AM 51.7145 -3.8154 107° East 527 606 33,100 -2,040 Climbing FlightAware ADS-B
12:39AM 51.7037 -3.7582 107° East 484 557 31,100 -1,800 Descending FlightAware UK
12:40AM 51.6925 -3.7019 107° East 527 606 32,200 -2,040 Climbing FlightAware ADS-B
12:40AM 51.6773 -3.6240 107° East 496 571 29,900 -2,040 Descending FlightAware UK
12:40AM 51.6703 -3.5886 107° East 523 602 31,200 -1,800 Climbing FlightAware ADS-B
12:40AM 51.6554 -3.5127 107° East 480 552 29,000 -2,100 Descending FlightAware UK
12:41AM 51.6475 -3.4723 107° East 512 589 30,100 -2,040 Climbing FlightAware ADS-B
12:41AM 51.6343 -3.4050 107° East 474 545 28,000 -2,040 Descending FlightAware UK
12:41AM 51.6259 -3.3628 107° East 504 580 29,100 -1,980 Climbing FlightAware ADS-B
12:41AM 51.6136 -3.2964 107° East 466 536 27,000 -1,920 Descending FlightAware UK
12:41AM 51.6121 -3.2859 107° East 500 575 28,400 -2,100 Climbing FlightAware ADS-B
12:42AM 51.6008 -3.2110 107° East 460 529 26,200 -1,920 Descending FlightAware UK
12:42AM 51.5952 -3.1711 107° East 496 571 27,400 -2,040 Climbing FlightAware ADS-B
12:42AM 51.5862 -3.1039 107° East 448 516 25,200 -4,680 Descending FlightAware UK
12:43AM 51.5779 -3.0405 102° East 444 511 24,600 480 Descending FlightAware UK
12:43AM 51.5696 -2.9774 102° East 489 563 25,500 -2,040 Climbing FlightAware ADS-B
12:43AM 51.5614 -2.9161 102° East 434 499 23,400 -1,980 Descending FlightAware UK
12:43AM 51.5552 -2.8699 102° East 472 543 24,500 -2,040 Climbing FlightAware ADS-B
12:44AM 51.5476 -2.8137 102° East 428 493 22,400 -1,980 Descending FlightAware UK
12:44AM 51.5409 -2.7643 102° East 466 536 23,500 -1,800 Climbing FlightAware ADS-B
12:44AM 51.5339 -2.7118 102° East 426 490 21,500 -1,800 Descending FlightAware UK
12:44AM 51.5273 -2.6640 102° East 458 527 22,600 -1,620 Climbing FlightAware ADS-B
12:45AM 51.5204 -2.6132 102° East 418 481 20,700 -1,620 Descending FlightAware UK
12:45AM 51.5137 -2.5642 102° East 450 518 21,800 -1,800 Climbing FlightAware ADS-B
12:45AM 51.5070 -2.5152 102° East 414 476 19,800 -1,680 Descending FlightAware UK
12:46AM 51.4990 -2.4574 102° East 441 507 20,900 -1,680 Climbing FlightAware ADS-B
12:46AM 51.4911 -2.4005 102° East 408 470 18,800 -1,740 Descending FlightAware UK
12:46AM 51.4852 -2.3586 102° East 430 495 20,000 -1,620 Climbing FlightAware ADS-B
12:46AM 51.4783 -2.3083 102° East 398 458 18,000 -1,800 Descending FlightAware UK
12:47AM 51.4720 -2.2647 102° East 427 491 19,100 -1,800 Climbing FlightAware ADS-B
12:47AM 51.4653 -2.2154 102° East 394 453 17,100 -1,560 Descending FlightAware UK
12:47AM 51.4585 -2.1688 102° East 423 487 18,300 -1,620 Climbing FlightAware ADS-B
12:47AM 51.4522 -2.1238 102° East 388 447 16,300 -1,560 Descending FlightAware UK
12:48AM 51.4456 -2.0768 102° East 419 482 17,500 -1,500 Climbing FlightAware ADS-B
12:48AM 51.4368 -2.0149 102° East 388 447 15,400 -1,620 Descending FlightAware UK
12:48AM 51.4327 -1.9858 102° East 414 476 16,700 1,620 Climbing FlightAware ADS-B
12:48AM 51.4246 -1.9282 103° East 408 470 16,200 -1,740 Descending FlightAware ADS-B
12:49AM 51.4219 -1.9020 99° East 408 470 15,900 -5,280 Descending FlightAware ADS-B
12:49AM 51.4186 -1.8543 99° East 382 440 14,000 -1,200 Descending FlightAware UK
12:49AM 51.4160 -1.8126 99° East 398 458 15,300 -1,200 Climbing FlightAware ADS-B
12:49AM 51.4132 -1.7659 99° East 368 423 13,400 -1,080 Descending FlightAware UK
12:50AM 51.4108 -1.7324 99° East 384 442 14,800 -1,020 Climbing FlightAware ADS-B
12:50AM 51.4071 -1.6823 99° East 352 405 12,900 -1,200 Descending FlightAware UK
12:50AM 51.4041 -1.6469 99° East 371 427 14,200 -1,020 Climbing FlightAware ADS-B
12:50AM 51.4004 -1.6018 99° East 340 391 12,400 -420 Descending FlightAware UK
12:51AM 51.3973 -1.5666 99° East 349 402 14,000  Climbing FlightAware ADS-B
12:51AM 51.3940 -1.5265 99° East 310 357 12,400  Descending FlightAware UK
12:51AM 51.3911 -1.4915 99° East 321 369 14,000 180 Climbing FlightAware ADS-B
12:51AM 51.3882 -1.4560 99° East 280 322 12,500  Descending FlightAware UK
12:52AM 51.3855 -1.4234 99° East 303 349 14,000  Climbing FlightAware ADS-B
12:52AM 51.3828 -1.3897 99° East 274 315 12,500  Descending FlightAware UK
12:52AM 51.3801 -1.3564 99° East 299 344 14,000  Climbing FlightAware ADS-B
12:52AM 51.3765 -1.3111 99° East 272 313 12,500  Descending FlightAware UK
12:53AM 51.3745 -1.2878 99° East 300 345 14,000  Climbing FlightAware ADS-B
12:53AM 51.3711 -1.2448 99° East 272 313 12,500  Descending FlightAware UK
12:53AM 51.3693 -1.2205 99° East 301 346 14,000  Climbing FlightAware ADS-B
12:53AM 51.3662 -1.1783 99° East 274 315 12,500  Descending FlightAware UK
12:54AM 51.3642 -1.1543 99° East 301 346 14,000  Climbing FlightAware ADS-B
12:54AM 51.3610 -1.1124 99° East 274 315 12,500  Descending FlightAware UK
12:54AM 51.3587 -1.0854 99° East 302 348 14,000  Climbing FlightAware ADS-B
12:54AM 51.3555 -1.0455 99° East 274 315 12,500  Descending FlightAware UK
12:55AM 51.3529 -1.0151 99° East 301 346 14,000 -420 Climbing FlightAware ADS-B
12:55AM 51.3499 -0.9793 99° East 272 313 12,300 -840 Descending FlightAware UK
12:55AM 51.3472 -0.9474 99° East 299 344 13,600 -1,200 Climbing FlightAware ADS-B
12:55AM 51.3444 -0.9138 99° East 270 311 11,700 -1,200 Descending FlightAware UK
12:56AM 51.3419 -0.8821 99° East 297 342 13,000 -1,200 Climbing FlightAware ADS-B
12:56AM 51.3392 -0.8487 99° East 268 308 11,100 -1,200 Descending FlightAware UK
12:56AM 51.3365 -0.8163 99° East 297 342 12,400 -1,140 Climbing FlightAware ADS-B
12:57AM 51.3327 -0.7703 99° East 266 306 10,400 -1,200 Descending FlightAware UK
12:57AM 51.3310 -0.7508 99° East 295 339 11,800 -1,080 Climbing FlightAware ADS-B
12:57AM 51.3272 -0.7065 99° East 264 304 9,900 -1,020 Descending FlightAware UK
12:57AM 51.3255 -0.6858 99° East 292 336 11,300 -1,020 Climbing FlightAware ADS-B
12:58AM 51.3218 -0.6423 99° East 260 299 9,400 -1,020 Descending FlightAware UK
12:58AM 51.3201 -0.6222 99° East 290 334 10,800 -840 Climbing FlightAware ADS-B
12:58AM 51.3167 -0.5790 99° East 262 302 9,000 -840 Descending FlightAware UK
12:58AM 51.3151 -0.5616 99° East 283 326 10,400 4,800 Climbing FlightAware ADS-B
12:58AM 51.3144 -0.5492 95° East 285 328 10,200 -1,200 Descending FlightAware ADS-B
12:58AM 51.3147 -0.5387 87° East 288 331 10,200 -720 Level FlightAware ADS-B
12:58AM 51.3156 -0.5300 81° East 290 334 10,100 -1,200 Descending FlightAware ADS-B
12:59AM 51.3177 -0.5196 72° East 292 336 10,000 -1,200 Descending FlightAware ADS-B
12:59AM 51.3200 -0.5115 65° Northeast 293 337 9,900 -1,380 Descending FlightAware ADS-B
12:59AM 51.3242 -0.5013 57° Northeast 292 336 9,800 -720 Descending FlightAware ADS-B
12:59AM 51.3272 -0.4956 50° Northeast 291 335 9,800 -900 Level FlightAware ADS-B
12:59AM 51.3308 -0.4902 43° Northeast 291 335 9,700 -1,020 Descending FlightAware ADS-B
12:59AM 51.3339 -0.4862 39° Northeast 289 333 9,700 -900 Level FlightAware ADS-B
12:59AM 51.3380 -0.4821 32° Northeast 287 330 9,600 -900 Descending FlightAware ADS-B
12:59AM 51.3419 -0.4789 28° Northeast 285 328 9,600 -900 Level FlightAware ADS-B
12:59AM 51.3467 -0.4753 25° Northeast 284 327 9,500 -960 Descending FlightAware ADS-B
12:59AM 51.3644 -0.4642 21° North 283 326 9,300 -840 Descending FlightAware ADS-B
01:00AM 51.3831 -0.4527 21° North 282 325 9,100 -1,020 Descending FlightAware ADS-B
01:00AM 51.4016 -0.4412 21° North 281 323 8,800 -900 Descending FlightAware ADS-B
01:00AM 51.4156 -0.4325 21° North 279 321 8,700 -840 Descending FlightAware ADS-B
01:00AM 51.4205 -0.4288 25° Northeast 280 322 8,600 -900 Descending FlightAware ADS-B
01:00AM 51.4239 -0.4257 30° Northeast 281 323 8,600 -780 Level FlightAware ADS-B
01:00AM 51.4282 -0.4208 35° Northeast 281 323 8,500 -720 Descending FlightAware ADS-B
01:00AM 51.4328 -0.4140 43° Northeast 280 322 8,500 -780 Level FlightAware ADS-B
01:00AM 51.4355 -0.4089 50° Northeast 279 321 8,400 -720 Descending FlightAware ADS-B
01:00AM 51.4394 -0.3989 58° Northeast 278 320 8,400 -600 Level FlightAware ADS-B
01:01AM 51.4422 -0.3880 68° East 275 316 8,300 -1,200 Descending FlightAware ADS-B
01:01AM 51.4433 -0.3816 75° East 272 313 8,200 -1,380 Descending FlightAware ADS-B
01:01AM 51.4440 -0.3709 84° East 269 310 8,100 -720 Descending FlightAware ADS-B
01:01AM 51.4438 -0.3626 92° East 266 306 8,100 -900 Level FlightAware ADS-B
01:01AM 51.4432 -0.3561 98° East 264 304 8,000 -780 Descending FlightAware ADS-B
01:01AM 51.4416 -0.3476 107° East 260 299 8,000 -780 Level FlightAware ADS-B
01:01AM 51.4400 -0.3416 113° Southeast 256 295 7,900 -900 Descending FlightAware ADS-B
01:01AM 51.4379 -0.3362 122° Southeast 253 291 7,900 -780 Level FlightAware ADS-B
01:01AM 51.4349 -0.3300 128° Southeast 249 287 7,800 -1,500 Descending FlightAware ADS-B
01:01AM 51.4319 -0.3254 136° Southeast 245 282 7,700 -1,380 Descending FlightAware ADS-B
01:01AM 51.4270 -0.3199 145° Southeast 241 277 7,600 -780 Descending FlightAware ADS-B
01:01AM 51.4240 -0.3174 153° Southeast 238 274 7,600 -900 Level FlightAware ADS-B
01:01AM 51.4198 -0.3148 159° South 235 270 7,500 -1,200 Descending FlightAware ADS-B
01:01AM 51.4137 -0.3116 162° South 234 269 7,400 -1,200 Descending FlightAware ADS-B
01:02AM 51.4051 -0.3076 164° South 236 272 7,200 -900 Descending FlightAware ADS-B
01:02AM 51.3929 -0.3024 165° South 238 274 7,100 -480 Descending FlightAware ADS-B
01:02AM 51.3764 -0.2954 165° South 239 275 7,000 -240 Descending FlightAware ADS-B
01:02AM 51.3604 -0.2885 165° South 236 272 7,000  Level FlightAware ADS-B
01:02AM 51.3531 -0.2851 164° South 236 272 7,000  Level FlightAware ADS-B
01:02AM 51.3494 -0.2829 160° South 237 273 7,000  Level FlightAware ADS-B
01:02AM 51.3457 -0.2798 153° Southeast 238 274 7,000  Level FlightAware ADS-B
01:03AM 51.3422 -0.2760 146° Southeast 239 275 7,000  Level FlightAware ADS-B
01:03AM 51.3392 -0.2718 139° Southeast 241 277 7,000  Level FlightAware ADS-B
01:03AM 51.3352 -0.2640 129° Southeast 243 280 7,000  Level FlightAware ADS-B
01:03AM 51.3332 -0.2584 120° Southeast 245 282 7,000  Level FlightAware ADS-B
01:03AM 51.3317 -0.2531 114° Southeast 247 284 7,000  Level FlightAware ADS-B
01:03AM 51.3303 -0.2457 107° East 249 287 7,000  Level FlightAware ADS-B
01:03AM 51.3297 -0.2393 99° East 250 288 7,000  Level FlightAware ADS-B
01:03AM 51.3295 -0.2310 92° East 254 292 7,000  Level FlightAware ADS-B
01:03AM 51.3298 -0.2242 86° East 257 296 7,000 -600 Level FlightAware ADS-B
01:03AM 51.3310 -0.2108 82° East 259 298 6,900 -900 Descending FlightAware ADS-B
01:03AM 51.3339 -0.1852 80° East 258 297 6,700 -840 Descending FlightAware ADS-B
01:04AM 51.3370 -0.1568 80° East 254 292 6,500 -780 Descending FlightAware ADS-B
01:04AM 51.3397 -0.1286 81° East 253 291 6,300 -780 Descending FlightAware ADS-B
01:04AM 51.3426 -0.0987 81° East 249 287 6,100 -600 Descending FlightAware ADS-B
01:04AM 51.3452 -0.0700 82° East 243 280 6,000 -420 Descending FlightAware ADS-B
01:05AM 51.3477 -0.0430 82° East 242 278 5,900 -420 Descending FlightAware ADS-B
01:05AM 51.3504 -0.0154 81° East 240 276 5,800 -660 Descending FlightAware ADS-B
01:05AM 51.3513 -0.0089 78° East 240 276 5,700 -600 Descending FlightAware ADS-B
01:05AM 51.3532 -0.0001 71° East 239 275 5,700 -720 Level FlightAware ADS-B
01:05AM 51.3550 0.0053 62° Northeast 237 273 5,600 -600 Descending FlightAware ADS-B
01:05AM 51.3594 0.0143 52° Northeast 233 268 5,600 -600 Level FlightAware ADS-B
01:05AM 51.3627 0.0193 44° Northeast 229 264 5,500 -720 Descending FlightAware ADS-B
01:05AM 51.3664 0.0244 41° Northeast 225 259 5,500 -300 Level FlightAware ADS-B
01:06AM 51.3782 0.0395 39° Northeast 214 246 5,400 -300 Descending FlightAware ADS-B
01:06AM 51.3857 0.0483 36° Northeast 206 237 5,400  Level FlightAware ADS-B
01:06AM 51.3900 0.0514 25° Northeast 200 230 5,400  Level FlightAware ADS-B
01:06AM 51.3940 0.0529 13° North 196 226 5,400 -780 Level FlightAware ADS-B
01:06AM 51.3968 0.0532 North 193 222 5,300 -780 Descending FlightAware ADS-B
01:06AM 51.4011 0.0525 354° North 191 220 5,300  Level FlightAware ADS-B
01:06AM 51.4043 0.0508 342° North 188 216 5,300  Level FlightAware ADS-B
01:06AM 51.4076 0.0480 332° Northwest 187 215 5,300  Level FlightAware ADS-B
01:06AM 51.4106 0.0439 320° Northwest 188 216 5,300  Level FlightAware ADS-B
01:06AM 51.4129 0.0401 314° West 188 216 5,300 -780 Level FlightAware ADS-B
01:07AM 51.4151 0.0357 309° West 188 216 5,200 -600 Descending FlightAware ADS-B
01:07AM 51.4232 0.0181 306° West 186 214 5,100 -420 Descending FlightAware ADS-B
01:07AM 51.4311 0.0017 308° West 183 211 5,000 -420 Descending FlightAware ADS-B
01:07AM 51.4396 -0.0157 308° West 182 209 4,900 -3,540 Descending FlightAware ADS-B
01:08AM 51.4473 -0.0319 308° West 194 223 3,200 -840 Descending FlightAware UK
01:08AM 51.4474 -0.0315 308° West 181 208 4,700 6,420 Climbing FlightAware ADS-B
01:08AM 51.4541 -0.0450 309° West 179 206 4,600 -660 Descending FlightAware ADS-B
01:08AM 51.4621 -0.0612 308° West 174 200 4,400 -780 Descending FlightAware ADS-B
01:08AM 51.4697 -0.0773 307° West 171 197 4,200 -720 Descending FlightAware ADS-B
01:08AM 51.4736 -0.0866 304° West 169 194 4,100 -480 Descending FlightAware ADS-B
01:09AM 51.4747 -0.0913 290° West 171 197 4,100  Level FlightAware ADS-B
01:09AM 51.4755 -0.0956 287° West 173 199 4,100 -720 Level FlightAware ADS-B
01:09AM 51.4765 -0.1023 283° West 172 198 4,000 -600 Descending FlightAware ADS-B
01:09AM 51.4772 -0.1086 280° West 172 198 4,000 -540 Level FlightAware ADS-B
01:09AM 51.4777 -0.1176 275° West 174 200 3,900 -900 Descending FlightAware ADS-B
01:09AM 51.4779 -0.1273 272° West 175 201 3,800 -4,740 Descending FlightAware ADS-B
01:09AM 51.4781 -0.1478 272° West 188 216 2,100 -720 Descending FlightAware UK
01:09AM 51.4780 -0.1499 272° West 178 205 3,600 -1,080 Climbing FlightAware ADS-B
01:10AM 51.4781 -0.1714 272° West 186 214 1,800 -1,140 Descending FlightAware UK
01:10AM 51.4781 -0.1713 272° West 180 207 3,300 4,860 Climbing FlightAware ADS-B
01:10AM 51.4781 -0.1919 270° West 183 211 3,100 -1,020 Descending FlightAware ADS-B
01:10AM 51.4781 -0.2127 270° West 184 212 2,800 -4,140 Descending FlightAware ADS-B
01:10AM 51.4781 -0.2362 270° West 184 212 900 -1,080 Descending FlightAware UK
01:10AM 51.4781 -0.2431 270° West 185 213 2,400 3,420 Climbing FlightAware ADS-B
01:11AM 51.4781 -0.2644 270° West 186 214 2,100 -4,200 Descending FlightAware ADS-B
01:11AM 51.4780 -0.2857 270° West 178 205 300 -840 Descending FlightAware UK
01:12AM 51.4780 -0.3210 270° West 160 184 1,400 780 Climbing FlightAware
01:12AM 51.4780 -0.3380 270° West 152 175 1,200 -900 Descending FlightAware
01:13AM 51.4780 -0.3930 270° West 143 165 500 -1,020 Descending FlightAware
01:13AM 51.4780 -0.4160 270° West 143 165 200 -420 Descending FlightAware
01:14AM 51.4780 -0.4570 270° West 142 163 100 -180 Descending FlightAware